sensor_id;sensor_type;location;lat;lon;timestamp;P1;durP1;ratioP1;P2;durP2;ratioP2
75639;SDS011;64233;51.486;6.332;2023-02-04T00:01:22;10.85;;;1.90;;
75639;SDS011;64233;51.486;6.332;2023-02-04T00:03:47;5.88;;;1.85;;
75639;SDS011;64233;51.486;6.332;2023-02-04T00:06:13;7.75;;;1.52;;
75639;SDS011;64233;51.486;6.332;2023-02-04T00:08:38;13.70;;;3.20;;
75639;SDS011;64233;51.486;6.332;2023-02-04T00:11:03;11.20;;;2.30;;
75639;SDS011;64233;51.486;6.332;2023-02-04T00:13:29;9.02;;;2.08;;
75639;SDS011;64233;51.486;6.332;2023-02-04T00:15:54;11.88;;;2.40;;
75639;SDS011;64233;51.486;6.332;2023-02-04T00:18:19;12.45;;;2.70;;
75639;SDS011;64233;51.486;6.332;2023-02-04T00:20:45;13.43;;;1.85;;
75639;SDS011;64233;51.486;6.332;2023-02-04T00:23:10;11.20;;;2.80;;
75639;SDS011;64233;51.486;6.332;2023-02-04T00:25:35;15.88;;;2.13;;
75639;SDS011;64233;51.486;6.332;2023-02-04T00:28:01;13.48;;;2.25;;
75639;SDS011;64233;51.486;6.332;2023-02-04T00:30:26;15.23;;;3.65;;
75639;SDS011;64233;51.486;6.332;2023-02-04T00:32:52;9.48;;;2.17;;
75639;SDS011;64233;51.486;6.332;2023-02-04T00:35:19;10.88;;;1.63;;
75639;SDS011;64233;51.486;6.332;2023-02-04T00:37:44;7.00;;;1.90;;
75639;SDS011;64233;51.486;6.332;2023-02-04T00:40:10;8.57;;;1.90;;
75639;SDS011;64233;51.486;6.332;2023-02-04T00:42:36;7.75;;;1.67;;
75639;SDS011;64233;51.486;6.332;2023-02-04T00:45:01;5.28;;;1.95;;
75639;SDS011;64233;51.486;6.332;2023-02-04T00:47:26;17.55;;;2.83;;
75639;SDS011;64233;51.486;6.332;2023-02-04T00:49:58;9.40;;;2.90;;
75639;SDS011;64233;51.486;6.332;2023-02-04T00:52:30;10.82;;;2.72;;
75639;SDS011;64233;51.486;6.332;2023-02-04T00:54:55;12.23;;;2.10;;
75639;SDS011;64233;51.486;6.332;2023-02-04T00:57:21;15.95;;;2.67;;
75639;SDS011;64233;51.486;6.332;2023-02-04T00:59:46;13.52;;;2.15;;
75639;SDS011;64233;51.486;6.332;2023-02-04T01:02:12;5.57;;;1.65;;
75639;SDS011;64233;51.486;6.332;2023-02-04T01:04:37;7.70;;;1.73;;
75639;SDS011;64233;51.486;6.332;2023-02-04T01:07:02;10.60;;;1.58;;
75639;SDS011;64233;51.486;6.332;2023-02-04T01:09:27;6.65;;;1.63;;
75639;SDS011;64233;51.486;6.332;2023-02-04T01:11:53;12.30;;;1.90;;
75639;SDS011;64233;51.486;6.332;2023-02-04T01:14:18;10.30;;;2.45;;
75639;SDS011;64233;51.486;6.332;2023-02-04T01:16:43;10.48;;;1.77;;
75639;SDS011;64233;51.486;6.332;2023-02-04T01:19:09;4.03;;;1.38;;
75639;SDS011;64233;51.486;6.332;2023-02-04T01:21:34;10.85;;;2.22;;
75639;SDS011;64233;51.486;6.332;2023-02-04T01:24:00;15.63;;;2.17;;
75639;SDS011;64233;51.486;6.332;2023-02-04T01:26:25;10.27;;;2.20;;
75639;SDS011;64233;51.486;6.332;2023-02-04T01:28:50;9.63;;;1.83;;
75639;SDS011;64233;51.486;6.332;2023-02-04T01:31:15;7.93;;;1.58;;
75639;SDS011;64233;51.486;6.332;2023-02-04T01:33:41;10.77;;;1.83;;
75639;SDS011;64233;51.486;6.332;2023-02-04T01:36:06;16.20;;;2.35;;
75639;SDS011;64233;51.486;6.332;2023-02-04T01:38:32;15.07;;;1.80;;
75639;SDS011;64233;51.486;6.332;2023-02-04T01:40:58;11.40;;;1.63;;
75639;SDS011;64233;51.486;6.332;2023-02-04T01:43:24;5.38;;;1.85;;
75639;SDS011;64233;51.486;6.332;2023-02-04T01:45:50;7.68;;;1.40;;
75639;SDS011;64233;51.486;6.332;2023-02-04T01:48:16;9.68;;;2.35;;
75639;SDS011;64233;51.486;6.332;2023-02-04T01:50:48;8.15;;;1.20;;
75639;SDS011;64233;51.486;6.332;2023-02-04T01:53:17;8.77;;;2.00;;
75639;SDS011;64233;51.486;6.332;2023-02-04T01:55:49;7.65;;;1.63;;
75639;SDS011;64233;51.486;6.332;2023-02-04T01:58:15;13.82;;;1.63;;
75639;SDS011;64233;51.486;6.332;2023-02-04T02:00:41;9.88;;;1.75;;
75639;SDS011;64233;51.486;6.332;2023-02-04T02:03:06;4.13;;;1.05;;
75639;SDS011;64233;51.486;6.332;2023-02-04T02:05:39;8.80;;;1.88;;
75639;SDS011;64233;51.486;6.332;2023-02-04T02:08:08;10.20;;;1.90;;
75639;SDS011;64233;51.486;6.332;2023-02-04T02:10:34;8.95;;;1.58;;
75639;SDS011;64233;51.486;6.332;2023-02-04T02:13:02;12.35;;;1.95;;
75639;SDS011;64233;51.486;6.332;2023-02-04T02:15:29;10.98;;;1.55;;
75639;SDS011;64233;51.486;6.332;2023-02-04T02:17:54;11.00;;;2.10;;
75639;SDS011;64233;51.486;6.332;2023-02-04T02:20:21;15.02;;;2.22;;
75639;SDS011;64233;51.486;6.332;2023-02-04T02:22:54;9.68;;;1.75;;
75639;SDS011;64233;51.486;6.332;2023-02-04T02:25:27;14.70;;;2.63;;
75639;SDS011;64233;51.486;6.332;2023-02-04T02:27:52;4.90;;;1.73;;
75639;SDS011;64233;51.486;6.332;2023-02-04T02:30:19;6.63;;;1.67;;
75639;SDS011;64233;51.486;6.332;2023-02-04T02:32:44;9.45;;;1.85;;
75639;SDS011;64233;51.486;6.332;2023-02-04T02:35:12;9.57;;;2.47;;
75639;SDS011;64233;51.486;6.332;2023-02-04T02:37:37;13.05;;;1.95;;
75639;SDS011;64233;51.486;6.332;2023-02-04T02:40:03;7.55;;;1.85;;
75639;SDS011;64233;51.486;6.332;2023-02-04T02:42:36;9.55;;;1.67;;
75639;SDS011;64233;51.486;6.332;2023-02-04T02:45:04;13.10;;;3.67;;
75639;SDS011;64233;51.486;6.332;2023-02-04T02:47:35;6.40;;;2.10;;
75639;SDS011;64233;51.486;6.332;2023-02-04T02:50:00;11.98;;;2.88;;
75639;SDS011;64233;51.486;6.332;2023-02-04T02:52:25;4.53;;;1.60;;
75639;SDS011;64233;51.486;6.332;2023-02-04T02:54:51;9.13;;;2.03;;
75639;SDS011;64233;51.486;6.332;2023-02-04T02:57:21;4.05;;;1.50;;
75639;SDS011;64233;51.486;6.332;2023-02-04T02:59:47;12.98;;;2.67;;
75639;SDS011;64233;51.486;6.332;2023-02-04T03:02:14;6.07;;;2.10;;
75639;SDS011;64233;51.486;6.332;2023-02-04T03:04:46;11.13;;;2.20;;
75639;SDS011;64233;51.486;6.332;2023-02-04T03:07:16;8.82;;;1.50;;
75639;SDS011;64233;51.486;6.332;2023-02-04T03:09:43;15.52;;;2.42;;
75639;SDS011;64233;51.486;6.332;2023-02-04T03:12:08;8.68;;;1.98;;
75639;SDS011;64233;51.486;6.332;2023-02-04T03:14:34;4.57;;;1.92;;
75639;SDS011;64233;51.486;6.332;2023-02-04T03:17:02;9.63;;;1.98;;
75639;SDS011;64233;51.486;6.332;2023-02-04T03:19:30;9.27;;;2.10;;
75639;SDS011;64233;51.486;6.332;2023-02-04T03:21:56;15.95;;;2.25;;
75639;SDS011;64233;51.486;6.332;2023-02-04T03:24:23;12.23;;;1.70;;
75639;SDS011;64233;51.486;6.332;2023-02-04T03:26:49;14.05;;;2.67;;
75639;SDS011;64233;51.486;6.332;2023-02-04T03:29:14;17.58;;;2.38;;
75639;SDS011;64233;51.486;6.332;2023-02-04T03:31:40;9.15;;;2.13;;
75639;SDS011;64233;51.486;6.332;2023-02-04T03:34:05;9.80;;;2.30;;
75639;SDS011;64233;51.486;6.332;2023-02-04T03:36:31;7.70;;;2.15;;
75639;SDS011;64233;51.486;6.332;2023-02-04T03:38:56;8.90;;;2.28;;
75639;SDS011;64233;51.486;6.332;2023-02-04T03:41:21;15.98;;;2.28;;
75639;SDS011;64233;51.486;6.332;2023-02-04T03:43:47;7.35;;;1.90;;
75639;SDS011;64233;51.486;6.332;2023-02-04T03:46:12;4.97;;;2.30;;
75639;SDS011;64233;51.486;6.332;2023-02-04T03:48:37;14.63;;;2.95;;
75639;SDS011;64233;51.486;6.332;2023-02-04T03:51:03;7.30;;;1.48;;
75639;SDS011;64233;51.486;6.332;2023-02-04T03:53:28;12.05;;;2.13;;
75639;SDS011;64233;51.486;6.332;2023-02-04T03:55:54;10.07;;;2.83;;
75639;SDS011;64233;51.486;6.332;2023-02-04T03:58:19;9.02;;;1.98;;
75639;SDS011;64233;51.486;6.332;2023-02-04T04:00:45;11.38;;;1.90;;
75639;SDS011;64233;51.486;6.332;2023-02-04T04:03:10;12.55;;;2.40;;
75639;SDS011;64233;51.486;6.332;2023-02-04T04:05:35;4.82;;;1.40;;
75639;SDS011;64233;51.486;6.332;2023-02-04T04:08:01;6.10;;;2.25;;
75639;SDS011;64233;51.486;6.332;2023-02-04T04:10:26;7.65;;;1.73;;
75639;SDS011;64233;51.486;6.332;2023-02-04T04:12:53;7.60;;;1.58;;
75639;SDS011;64233;51.486;6.332;2023-02-04T04:15:19;10.27;;;2.30;;
75639;SDS011;64233;51.486;6.332;2023-02-04T04:17:44;7.57;;;1.83;;
75639;SDS011;64233;51.486;6.332;2023-02-04T04:20:10;8.57;;;2.60;;
75639;SDS011;64233;51.486;6.332;2023-02-04T04:22:36;11.25;;;2.05;;
75639;SDS011;64233;51.486;6.332;2023-02-04T04:25:01;12.32;;;2.30;;
75639;SDS011;64233;51.486;6.332;2023-02-04T04:27:26;11.98;;;2.75;;
75639;SDS011;64233;51.486;6.332;2023-02-04T04:29:53;6.95;;;2.10;;
75639;SDS011;64233;51.486;6.332;2023-02-04T04:32:18;11.13;;;2.53;;
75639;SDS011;64233;51.486;6.332;2023-02-04T04:34:43;8.80;;;2.15;;
75639;SDS011;64233;51.486;6.332;2023-02-04T04:37:08;8.70;;;1.92;;
75639;SDS011;64233;51.486;6.332;2023-02-04T04:39:34;11.63;;;1.88;;
75639;SDS011;64233;51.486;6.332;2023-02-04T04:41:59;13.73;;;2.25;;
75639;SDS011;64233;51.486;6.332;2023-02-04T04:44:24;14.02;;;2.80;;
75639;SDS011;64233;51.486;6.332;2023-02-04T04:46:56;7.85;;;2.45;;
75639;SDS011;64233;51.486;6.332;2023-02-04T04:49:28;13.95;;;3.10;;
75639;SDS011;64233;51.486;6.332;2023-02-04T04:51:54;17.00;;;2.78;;
75639;SDS011;64233;51.486;6.332;2023-02-04T04:54:19;9.43;;;2.20;;
75639;SDS011;64233;51.486;6.332;2023-02-04T04:56:44;8.93;;;2.35;;
75639;SDS011;64233;51.486;6.332;2023-02-04T04:59:09;14.65;;;2.90;;
75639;SDS011;64233;51.486;6.332;2023-02-04T05:01:35;15.65;;;2.95;;
75639;SDS011;64233;51.486;6.332;2023-02-04T05:04:00;9.75;;;2.58;;
75639;SDS011;64233;51.486;6.332;2023-02-04T05:06:27;9.52;;;3.25;;
75639;SDS011;64233;51.486;6.332;2023-02-04T05:08:53;10.45;;;2.50;;
75639;SDS011;64233;51.486;6.332;2023-02-04T05:11:19;6.22;;;2.28;;
75639;SDS011;64233;51.486;6.332;2023-02-04T05:13:45;10.57;;;2.90;;
75639;SDS011;64233;51.486;6.332;2023-02-04T05:16:10;15.55;;;3.03;;
75639;SDS011;64233;51.486;6.332;2023-02-04T05:18:36;7.78;;;2.53;;
75639;SDS011;64233;51.486;6.332;2023-02-04T05:21:02;5.15;;;2.22;;
75639;SDS011;64233;51.486;6.332;2023-02-04T05:23:27;10.27;;;1.92;;
75639;SDS011;64233;51.486;6.332;2023-02-04T05:25:52;12.70;;;3.42;;
75639;SDS011;64233;51.486;6.332;2023-02-04T05:28:18;11.73;;;2.67;;
75639;SDS011;64233;51.486;6.332;2023-02-04T05:30:43;19.40;;;3.72;;
75639;SDS011;64233;51.486;6.332;2023-02-04T05:33:08;7.47;;;2.13;;
75639;SDS011;64233;51.486;6.332;2023-02-04T05:35:33;11.85;;;3.05;;
75639;SDS011;64233;51.486;6.332;2023-02-04T05:37:59;17.00;;;3.10;;
75639;SDS011;64233;51.486;6.332;2023-02-04T05:40:24;7.68;;;2.33;;
75639;SDS011;64233;51.486;6.332;2023-02-04T05:42:49;6.00;;;1.98;;
75639;SDS011;64233;51.486;6.332;2023-02-04T05:45:15;4.88;;;2.00;;
75639;SDS011;64233;51.486;6.332;2023-02-04T05:47:42;14.63;;;2.85;;
75639;SDS011;64233;51.486;6.332;2023-02-04T05:50:08;8.45;;;2.33;;
75639;SDS011;64233;51.486;6.332;2023-02-04T05:52:34;10.55;;;2.78;;
75639;SDS011;64233;51.486;6.332;2023-02-04T05:54:59;5.25;;;2.20;;
75639;SDS011;64233;51.486;6.332;2023-02-04T05:57:24;6.78;;;2.45;;
75639;SDS011;64233;51.486;6.332;2023-02-04T05:59:50;10.93;;;2.22;;
75639;SDS011;64233;51.486;6.332;2023-02-04T06:02:15;11.27;;;2.20;;
75639;SDS011;64233;51.486;6.332;2023-02-04T06:04:40;4.13;;;1.65;;
75639;SDS011;64233;51.486;6.332;2023-02-04T06:07:06;13.85;;;2.85;;
75639;SDS011;64233;51.486;6.332;2023-02-04T06:09:31;14.85;;;3.28;;
75639;SDS011;64233;51.486;6.332;2023-02-04T06:11:56;6.97;;;2.55;;
75639;SDS011;64233;51.486;6.332;2023-02-04T06:14:21;10.60;;;2.38;;
75639;SDS011;64233;51.486;6.332;2023-02-04T06:16:47;8.18;;;2.90;;
75639;SDS011;64233;51.486;6.332;2023-02-04T06:19:12;7.55;;;2.92;;
75639;SDS011;64233;51.486;6.332;2023-02-04T06:21:38;5.30;;;2.65;;
75639;SDS011;64233;51.486;6.332;2023-02-04T06:24:03;9.95;;;2.80;;
75639;SDS011;64233;51.486;6.332;2023-02-04T06:26:28;9.35;;;3.15;;
75639;SDS011;64233;51.486;6.332;2023-02-04T06:28:54;15.23;;;2.65;;
75639;SDS011;64233;51.486;6.332;2023-02-04T06:31:19;10.13;;;2.55;;
75639;SDS011;64233;51.486;6.332;2023-02-04T06:33:44;5.18;;;2.22;;
75639;SDS011;64233;51.486;6.332;2023-02-04T06:36:10;10.45;;;3.25;;
75639;SDS011;64233;51.486;6.332;2023-02-04T06:38:35;11.75;;;2.53;;
75639;SDS011;64233;51.486;6.332;2023-02-04T06:41:00;6.88;;;2.33;;
75639;SDS011;64233;51.486;6.332;2023-02-04T06:43:26;11.38;;;2.92;;
75639;SDS011;64233;51.486;6.332;2023-02-04T06:45:51;11.38;;;2.60;;
75639;SDS011;64233;51.486;6.332;2023-02-04T06:48:17;16.30;;;4.47;;
75639;SDS011;64233;51.486;6.332;2023-02-04T06:50:43;13.57;;;2.97;;
75639;SDS011;64233;51.486;6.332;2023-02-04T06:53:08;16.35;;;3.50;;
75639;SDS011;64233;51.486;6.332;2023-02-04T06:55:33;13.68;;;3.75;;
75639;SDS011;64233;51.486;6.332;2023-02-04T06:57:59;16.88;;;3.28;;
75639;SDS011;64233;51.486;6.332;2023-02-04T07:00:24;13.77;;;3.38;;
75639;SDS011;64233;51.486;6.332;2023-02-04T07:02:50;16.20;;;3.17;;
75639;SDS011;64233;51.486;6.332;2023-02-04T07:05:16;8.63;;;3.25;;
75639;SDS011;64233;51.486;6.332;2023-02-04T07:07:42;7.85;;;2.83;;
75639;SDS011;64233;51.486;6.332;2023-02-04T07:10:07;8.60;;;2.88;;
75639;SDS011;64233;51.486;6.332;2023-02-04T07:12:33;17.73;;;4.78;;
75639;SDS011;64233;51.486;6.332;2023-02-04T07:14:58;12.57;;;3.63;;
75639;SDS011;64233;51.486;6.332;2023-02-04T07:17:23;9.40;;;2.70;;
75639;SDS011;64233;51.486;6.332;2023-02-04T07:19:48;11.18;;;2.85;;
75639;SDS011;64233;51.486;6.332;2023-02-04T07:22:14;10.75;;;3.20;;
75639;SDS011;64233;51.486;6.332;2023-02-04T07:24:39;11.05;;;3.90;;
75639;SDS011;64233;51.486;6.332;2023-02-04T07:27:04;8.90;;;3.35;;
75639;SDS011;64233;51.486;6.332;2023-02-04T07:29:30;10.50;;;4.07;;
75639;SDS011;64233;51.486;6.332;2023-02-04T07:31:55;9.40;;;3.63;;
75639;SDS011;64233;51.486;6.332;2023-02-04T07:34:20;12.52;;;3.28;;
75639;SDS011;64233;51.486;6.332;2023-02-04T07:36:46;8.63;;;2.63;;
75639;SDS011;64233;51.486;6.332;2023-02-04T07:39:11;25.63;;;3.88;;
75639;SDS011;64233;51.486;6.332;2023-02-04T07:41:36;7.47;;;2.80;;
75639;SDS011;64233;51.486;6.332;2023-02-04T07:44:02;4.22;;;2.00;;
75639;SDS011;64233;51.486;6.332;2023-02-04T07:46:28;9.88;;;2.63;;
75639;SDS011;64233;51.486;6.332;2023-02-04T07:48:53;13.25;;;3.08;;
75639;SDS011;64233;51.486;6.332;2023-02-04T07:51:19;12.27;;;3.05;;
75639;SDS011;64233;51.486;6.332;2023-02-04T07:53:44;17.05;;;4.07;;
75639;SDS011;64233;51.486;6.332;2023-02-04T07:56:09;14.38;;;3.83;;
75639;SDS011;64233;51.486;6.332;2023-02-04T07:58:35;12.32;;;4.10;;
75639;SDS011;64233;51.486;6.332;2023-02-04T08:01:00;31.23;;;3.75;;
75639;SDS011;64233;51.486;6.332;2023-02-04T08:03:25;17.95;;;3.38;;
75639;SDS011;64233;51.486;6.332;2023-02-04T08:05:51;16.65;;;3.35;;
75639;SDS011;64233;51.486;6.332;2023-02-04T08:08:17;10.43;;;3.20;;
75639;SDS011;64233;51.486;6.332;2023-02-04T08:10:42;15.85;;;4.68;;
75639;SDS011;64233;51.486;6.332;2023-02-04T08:13:07;14.82;;;4.07;;
75639;SDS011;64233;51.486;6.332;2023-02-04T08:15:32;13.70;;;4.97;;
75639;SDS011;64233;51.486;6.332;2023-02-04T08:17:58;16.23;;;3.45;;
75639;SDS011;64233;51.486;6.332;2023-02-04T08:20:23;15.50;;;4.13;;
75639;SDS011;64233;51.486;6.332;2023-02-04T08:22:48;14.63;;;4.10;;
75639;SDS011;64233;51.486;6.332;2023-02-04T08:25:14;18.40;;;4.90;;
75639;SDS011;64233;51.486;6.332;2023-02-04T08:27:39;12.27;;;4.18;;
75639;SDS011;64233;51.486;6.332;2023-02-04T08:30:05;15.57;;;3.90;;
75639;SDS011;64233;51.486;6.332;2023-02-04T08:32:31;14.93;;;4.53;;
75639;SDS011;64233;51.486;6.332;2023-02-04T08:34:56;22.48;;;4.75;;
75639;SDS011;64233;51.486;6.332;2023-02-04T08:37:22;10.35;;;3.90;;
75639;SDS011;64233;51.486;6.332;2023-02-04T08:39:47;13.60;;;3.95;;
75639;SDS011;64233;51.486;6.332;2023-02-04T08:42:13;24.48;;;4.63;;
75639;SDS011;64233;51.486;6.332;2023-02-04T08:44:39;17.98;;;4.10;;
75639;SDS011;64233;51.486;6.332;2023-02-04T08:47:04;27.33;;;4.80;;
75639;SDS011;64233;51.486;6.332;2023-02-04T08:49:30;12.95;;;4.60;;
75639;SDS011;64233;51.486;6.332;2023-02-04T08:51:55;23.17;;;5.55;;
75639;SDS011;64233;51.486;6.332;2023-02-04T08:54:20;23.23;;;5.53;;
75639;SDS011;64233;51.486;6.332;2023-02-04T08:56:45;21.83;;;6.88;;
75639;SDS011;64233;51.486;6.332;2023-02-04T08:59:11;15.32;;;4.55;;
75639;SDS011;64233;51.486;6.332;2023-02-04T09:01:36;15.23;;;5.60;;
75639;SDS011;64233;51.486;6.332;2023-02-04T09:04:01;16.23;;;5.53;;
75639;SDS011;64233;51.486;6.332;2023-02-04T09:06:27;21.88;;;7.38;;
75639;SDS011;64233;51.486;6.332;2023-02-04T09:08:52;17.02;;;5.78;;
75639;SDS011;64233;51.486;6.332;2023-02-04T09:11:17;18.25;;;6.00;;
75639;SDS011;64233;51.486;6.332;2023-02-04T09:13:42;16.20;;;5.68;;
75639;SDS011;64233;51.486;6.332;2023-02-04T09:16:08;19.35;;;6.88;;
75639;SDS011;64233;51.486;6.332;2023-02-04T09:18:33;19.35;;;6.35;;
75639;SDS011;64233;51.486;6.332;2023-02-04T09:20:58;19.88;;;6.53;;
75639;SDS011;64233;51.486;6.332;2023-02-04T09:23:23;19.35;;;6.03;;
75639;SDS011;64233;51.486;6.332;2023-02-04T09:25:49;15.38;;;6.45;;
75639;SDS011;64233;51.486;6.332;2023-02-04T09:28:15;21.30;;;6.05;;
75639;SDS011;64233;51.486;6.332;2023-02-04T09:30:42;16.52;;;5.47;;
75639;SDS011;64233;51.486;6.332;2023-02-04T09:33:09;22.13;;;5.88;;
75639;SDS011;64233;51.486;6.332;2023-02-04T09:35:36;18.40;;;5.47;;
75639;SDS011;64233;51.486;6.332;2023-02-04T09:38:01;23.15;;;5.78;;
75639;SDS011;64233;51.486;6.332;2023-02-04T09:40:27;18.40;;;5.32;;
75639;SDS011;64233;51.486;6.332;2023-02-04T09:42:55;26.30;;;5.95;;
75639;SDS011;64233;51.486;6.332;2023-02-04T09:45:21;24.98;;;6.30;;
75639;SDS011;64233;51.486;6.332;2023-02-04T09:47:49;17.60;;;6.10;;
75639;SDS011;64233;51.486;6.332;2023-02-04T09:50:15;16.25;;;5.93;;
75639;SDS011;64233;51.486;6.332;2023-02-04T09:52:44;22.02;;;6.85;;
75639;SDS011;64233;51.486;6.332;2023-02-04T09:55:13;16.52;;;5.68;;
75639;SDS011;64233;51.486;6.332;2023-02-04T09:57:40;14.38;;;5.43;;
75639;SDS011;64233;51.486;6.332;2023-02-04T10:00:13;18.33;;;5.10;;
75639;SDS011;64233;51.486;6.332;2023-02-04T10:02:40;18.50;;;4.93;;
75639;SDS011;64233;51.486;6.332;2023-02-04T10:05:05;19.17;;;4.93;;
75639;SDS011;64233;51.486;6.332;2023-02-04T10:07:38;22.80;;;5.75;;
75639;SDS011;64233;51.486;6.332;2023-02-04T10:10:03;20.40;;;4.28;;
75639;SDS011;64233;51.486;6.332;2023-02-04T10:12:29;22.40;;;5.47;;
75639;SDS011;64233;51.486;6.332;2023-02-04T10:14:56;16.83;;;4.07;;
75639;SDS011;64233;51.486;6.332;2023-02-04T10:17:21;39.58;;;5.57;;
75639;SDS011;64233;51.486;6.332;2023-02-04T10:19:47;30.25;;;4.88;;
75639;SDS011;64233;51.486;6.332;2023-02-04T10:22:16;15.23;;;4.75;;
75639;SDS011;64233;51.486;6.332;2023-02-04T10:24:44;26.48;;;5.53;;
75639;SDS011;64233;51.486;6.332;2023-02-04T10:27:10;20.88;;;5.85;;
75639;SDS011;64233;51.486;6.332;2023-02-04T10:29:36;21.25;;;5.55;;
75639;SDS011;64233;51.486;6.332;2023-02-04T10:32:02;23.77;;;6.18;;
75639;SDS011;64233;51.486;6.332;2023-02-04T10:36:58;13.95;;;4.80;;
75639;SDS011;64233;51.486;6.332;2023-02-04T10:39:26;26.40;;;6.65;;
75639;SDS011;64233;51.486;6.332;2023-02-04T10:41:56;11.82;;;4.38;;
75639;SDS011;64233;51.486;6.332;2023-02-04T10:44:27;25.15;;;5.07;;
75639;SDS011;64233;51.486;6.332;2023-02-04T10:46:58;20.63;;;5.93;;
75639;SDS011;64233;51.486;6.332;2023-02-04T10:52:51;16.73;;;4.72;;
75639;SDS011;64233;51.486;6.332;2023-02-04T10:55:20;22.55;;;4.32;;
75639;SDS011;64233;51.486;6.332;2023-02-04T10:57:48;25.27;;;5.20;;
75639;SDS011;64233;51.486;6.332;2023-02-04T11:00:19;17.63;;;4.68;;
75639;SDS011;64233;51.486;6.332;2023-02-04T11:05:20;22.33;;;5.90;;
75639;SDS011;64233;51.486;6.332;2023-02-04T11:07:47;23.70;;;5.88;;
75639;SDS011;64233;51.486;6.332;2023-02-04T11:10:14;19.08;;;5.78;;
75639;SDS011;64233;51.486;6.332;2023-02-04T11:13:25;13.80;;;4.53;;
75639;SDS011;64233;51.486;6.332;2023-02-04T11:15:38;19.58;;;6.30;;
75639;SDS011;64233;51.486;6.332;2023-02-04T11:18:12;23.67;;;5.35;;
75639;SDS011;64233;51.486;6.332;2023-02-04T11:20:52;30.52;;;5.50;;
75639;SDS011;64233;51.486;6.332;2023-02-04T11:26:04;25.42;;;4.63;;
75639;SDS011;64233;51.486;6.332;2023-02-04T11:28:38;20.85;;;4.65;;
75639;SDS011;64233;51.486;6.332;2023-02-04T11:36:48;10.57;;;3.85;;
75639;SDS011;64233;51.486;6.332;2023-02-04T11:39:20;20.27;;;5.70;;
75639;SDS011;64233;51.486;6.332;2023-02-04T11:41:48;25.92;;;4.75;;
75639;SDS011;64233;51.486;6.332;2023-02-04T11:44:13;19.42;;;4.82;;
75639;SDS011;64233;51.486;6.332;2023-02-04T11:46:40;18.27;;;3.78;;
75639;SDS011;64233;51.486;6.332;2023-02-04T11:49:12;14.00;;;4.45;;
75639;SDS011;64233;51.486;6.332;2023-02-04T11:51:42;14.85;;;4.40;;
75639;SDS011;64233;51.486;6.332;2023-02-04T11:54:10;13.48;;;4.30;;
75639;SDS011;64233;51.486;6.332;2023-02-04T11:56:35;25.75;;;4.32;;
75639;SDS011;64233;51.486;6.332;2023-02-04T11:59:01;21.00;;;4.43;;
75639;SDS011;64233;51.486;6.332;2023-02-04T12:01:30;25.38;;;5.50;;
75639;SDS011;64233;51.486;6.332;2023-02-04T12:03:57;31.25;;;5.47;;
75639;SDS011;64233;51.486;6.332;2023-02-04T12:06:44;18.88;;;4.47;;
75639;SDS011;64233;51.486;6.332;2023-02-04T12:09:24;17.30;;;2.90;;
75639;SDS011;64233;51.486;6.332;2023-02-04T12:12:00;18.98;;;2.95;;
75639;SDS011;64233;51.486;6.332;2023-02-04T12:14:34;18.67;;;3.38;;
75639;SDS011;64233;51.486;6.332;2023-02-04T12:17:11;19.65;;;3.78;;
75639;SDS011;64233;51.486;6.332;2023-02-04T12:19:41;20.65;;;4.70;;
75639;SDS011;64233;51.486;6.332;2023-02-04T12:22:06;16.70;;;3.42;;
75639;SDS011;64233;51.486;6.332;2023-02-04T12:24:32;19.35;;;4.07;;
75639;SDS011;64233;51.486;6.332;2023-02-04T12:26:57;14.63;;;4.00;;
75639;SDS011;64233;51.486;6.332;2023-02-04T12:29:22;22.13;;;5.63;;
75639;SDS011;64233;51.486;6.332;2023-02-04T12:31:47;21.27;;;4.85;;
75639;SDS011;64233;51.486;6.332;2023-02-04T12:34:13;14.90;;;4.68;;
75639;SDS011;64233;51.486;6.332;2023-02-04T12:36:38;22.15;;;3.65;;
75639;SDS011;64233;51.486;6.332;2023-02-04T12:39:03;26.02;;;5.15;;
75639;SDS011;64233;51.486;6.332;2023-02-04T12:41:28;10.05;;;2.97;;
75639;SDS011;64233;51.486;6.332;2023-02-04T12:43:54;14.43;;;3.35;;
75639;SDS011;64233;51.486;6.332;2023-02-04T12:46:19;16.00;;;4.18;;
75639;SDS011;64233;51.486;6.332;2023-02-04T12:48:45;14.98;;;3.25;;
75639;SDS011;64233;51.486;6.332;2023-02-04T12:51:10;23.73;;;4.28;;
75639;SDS011;64233;51.486;6.332;2023-02-04T12:53:36;14.20;;;3.85;;
75639;SDS011;64233;51.486;6.332;2023-02-04T12:56:01;11.48;;;3.53;;
75639;SDS011;64233;51.486;6.332;2023-02-04T12:58:26;18.75;;;3.90;;
75639;SDS011;64233;51.486;6.332;2023-02-04T13:00:51;14.60;;;4.00;;
75639;SDS011;64233;51.486;6.332;2023-02-04T13:03:17;7.60;;;2.03;;
75639;SDS011;64233;51.486;6.332;2023-02-04T13:05:42;14.32;;;2.95;;
75639;SDS011;64233;51.486;6.332;2023-02-04T13:08:08;12.38;;;5.03;;
75639;SDS011;64233;51.486;6.332;2023-02-04T13:10:33;17.13;;;3.60;;
75639;SDS011;64233;51.486;6.332;2023-02-04T13:12:59;21.83;;;4.70;;
75639;SDS011;64233;51.486;6.332;2023-02-04T13:15:25;12.48;;;3.63;;
75639;SDS011;64233;51.486;6.332;2023-02-04T13:17:50;16.50;;;3.05;;
75639;SDS011;64233;51.486;6.332;2023-02-04T13:20:16;12.07;;;3.03;;
75639;SDS011;64233;51.486;6.332;2023-02-04T13:22:41;13.40;;;2.95;;
75639;SDS011;64233;51.486;6.332;2023-02-04T13:25:06;18.15;;;3.15;;
75639;SDS011;64233;51.486;6.332;2023-02-04T13:27:33;20.25;;;3.60;;
75639;SDS011;64233;51.486;6.332;2023-02-04T13:29:58;22.17;;;3.53;;
75639;SDS011;64233;51.486;6.332;2023-02-04T13:32:24;21.10;;;4.32;;
75639;SDS011;64233;51.486;6.332;2023-02-04T13:34:49;16.25;;;3.67;;
75639;SDS011;64233;51.486;6.332;2023-02-04T13:37:14;20.02;;;3.60;;
75639;SDS011;64233;51.486;6.332;2023-02-04T13:39:40;18.58;;;3.97;;
75639;SDS011;64233;51.486;6.332;2023-02-04T13:42:05;12.20;;;4.40;;
75639;SDS011;64233;51.486;6.332;2023-02-04T13:44:30;24.80;;;4.35;;
75639;SDS011;64233;51.486;6.332;2023-02-04T13:46:55;15.02;;;3.58;;
75639;SDS011;64233;51.486;6.332;2023-02-04T13:49:21;15.27;;;3.58;;
75639;SDS011;64233;51.486;6.332;2023-02-04T13:51:46;17.08;;;4.20;;
75639;SDS011;64233;51.486;6.332;2023-02-04T13:54:11;16.85;;;5.03;;
75639;SDS011;64233;51.486;6.332;2023-02-04T13:56:37;10.80;;;2.75;;
75639;SDS011;64233;51.486;6.332;2023-02-04T13:59:02;17.13;;;3.40;;
75639;SDS011;64233;51.486;6.332;2023-02-04T14:01:28;26.17;;;3.55;;
75639;SDS011;64233;51.486;6.332;2023-02-04T14:03:53;23.90;;;3.85;;
75639;SDS011;64233;51.486;6.332;2023-02-04T14:06:18;28.02;;;3.80;;
75639;SDS011;64233;51.486;6.332;2023-02-04T14:08:46;15.48;;;3.40;;
75639;SDS011;64233;51.486;6.332;2023-02-04T14:11:12;13.10;;;3.88;;
75639;SDS011;64233;51.486;6.332;2023-02-04T14:13:37;40.35;;;12.43;;
75639;SDS011;64233;51.486;6.332;2023-02-04T14:16:02;15.80;;;4.63;;
75639;SDS011;64233;51.486;6.332;2023-02-04T14:18:29;13.65;;;3.20;;
75639;SDS011;64233;51.486;6.332;2023-02-04T14:20:54;9.45;;;2.80;;
75639;SDS011;64233;51.486;6.332;2023-02-04T14:23:19;19.38;;;4.28;;
75639;SDS011;64233;51.486;6.332;2023-02-04T14:25:45;19.88;;;3.95;;
75639;SDS011;64233;51.486;6.332;2023-02-04T14:28:10;20.02;;;3.80;;
75639;SDS011;64233;51.486;6.332;2023-02-04T14:30:35;12.57;;;3.33;;
75639;SDS011;64233;51.486;6.332;2023-02-04T14:33:01;16.60;;;3.40;;
75639;SDS011;64233;51.486;6.332;2023-02-04T14:35:27;20.05;;;5.63;;
75639;SDS011;64233;51.486;6.332;2023-02-04T14:37:52;12.20;;;2.20;;
75639;SDS011;64233;51.486;6.332;2023-02-04T14:40:18;16.92;;;3.63;;
75639;SDS011;64233;51.486;6.332;2023-02-04T14:42:44;16.55;;;3.10;;
75639;SDS011;64233;51.486;6.332;2023-02-04T14:45:11;18.48;;;3.08;;
75639;SDS011;64233;51.486;6.332;2023-02-04T14:47:37;21.80;;;3.78;;
75639;SDS011;64233;51.486;6.332;2023-02-04T14:50:04;9.35;;;2.50;;